sensor_id;sensor_type;location;lat;lon;timestamp;temperature;humidity
56542;DHT22;42438;53.174;6.730;2023-07-13T00:00:16;16.20;99.90
56542;DHT22;42438;53.174;6.730;2023-07-13T00:02:47;16.20;99.90
56542;DHT22;42438;53.174;6.730;2023-07-13T00:05:17;16.20;1.00
56542;DHT22;42438;53.174;6.730;2023-07-13T00:07:49;16.20;1.00
56542;DHT22;42438;53.174;6.730;2023-07-13T00:10:21;16.20;1.00
56542;DHT22;42438;53.174;6.730;2023-07-13T00:12:52;16.10;58.70
56542;DHT22;42438;53.174;6.730;2023-07-13T00:15:26;16.20;99.90
56542;DHT22;42438;53.174;6.730;2023-07-13T00:17:57;16.20;99.90
56542;DHT22;42438;53.174;6.730;2023-07-13T00:20:28;16.20;1.00
56542;DHT22;42438;53.174;6.730;2023-07-13T00:22:59;16.20;1.00
56542;DHT22;42438;53.174;6.730;2023-07-13T00:25:29;16.20;1.00
56542;DHT22;42438;53.174;6.730;2023-07-13T00:28:01;16.20;99.90
56542;DHT22;42438;53.174;6.730;2023-07-13T00:30:32;16.30;99.90
56542;DHT22;42438;53.174;6.730;2023-07-13T00:33:03;16.30;1.00
56542;DHT22;42438;53.174;6.730;2023-07-13T00:35:34;16.30;1.00
56542;DHT22;42438;53.174;6.730;2023-07-13T00:38:05;16.30;1.00
56542;DHT22;42438;53.174;6.730;2023-07-13T00:40:35;16.30;1.00
56542;DHT22;42438;53.174;6.730;2023-07-13T00:43:26;16.30;92.30
56542;DHT22;42438;53.174;6.730;2023-07-13T00:46:18;16.30;99.90
56542;DHT22;42438;53.174;6.730;2023-07-13T00:48:50;16.30;99.90
56542;DHT22;42438;53.174;6.730;2023-07-13T00:51:29;16.30;99.90
56542;DHT22;42438;53.174;6.730;2023-07-13T00:54:04;16.30;99.90
56542;DHT22;42438;53.174;6.730;2023-07-13T00:56:35;16.30;99.90
56542;DHT22;42438;53.174;6.730;2023-07-13T00:59:08;16.30;99.90
56542;DHT22;42438;53.174;6.730;2023-07-13T01:01:41;16.30;1.00
56542;DHT22;42438;53.174;6.730;2023-07-13T01:04:12;16.30;1.00
56542;DHT22;42438;53.174;6.730;2023-07-13T01:06:45;16.30;1.00
56542;DHT22;42438;53.174;6.730;2023-07-13T01:09:17;16.20;99.90
56542;DHT22;42438;53.174;6.730;2023-07-13T01:11:48;16.20;1.00
56542;DHT22;42438;53.174;6.730;2023-07-13T01:14:19;16.20;1.00
56542;DHT22;42438;53.174;6.730;2023-07-13T01:16:50;16.20;46.00
56542;DHT22;42438;53.174;6.730;2023-07-13T01:19:35;16.10;99.90
56542;DHT22;42438;53.174;6.730;2023-07-13T01:22:13;16.10;1.00
56542;DHT22;42438;53.174;6.730;2023-07-13T01:24:47;16.10;1.00
56542;DHT22;42438;53.174;6.730;2023-07-13T01:27:22;16.10;99.90
56542;DHT22;42438;53.174;6.730;2023-07-13T01:29:56;16.10;1.00
56542;DHT22;42438;53.174;6.730;2023-07-13T01:32:32;16.10;1.00
56542;DHT22;42438;53.174;6.730;2023-07-13T01:35:04;16.10;1.00
56542;DHT22;42438;53.174;6.730;2023-07-13T01:37:35;16.10;1.00
56542;DHT22;42438;53.174;6.730;2023-07-13T01:40:06;16.20;14.70
56542;DHT22;42438;53.174;6.730;2023-07-13T01:42:39;16.20;99.90
56542;DHT22;42438;53.174;6.730;2023-07-13T01:45:10;16.20;99.90
56542;DHT22;42438;53.174;6.730;2023-07-13T01:47:41;16.20;99.90
56542;DHT22;42438;53.174;6.730;2023-07-13T01:50:12;16.20;99.90
56542;DHT22;42438;53.174;6.730;2023-07-13T01:52:42;16.20;99.90
56542;DHT22;42438;53.174;6.730;2023-07-13T01:55:13;16.20;99.90
56542;DHT22;42438;53.174;6.730;2023-07-13T01:57:44;16.20;99.90
56542;DHT22;42438;53.174;6.730;2023-07-13T02:00:15;16.30;99.90
56542;DHT22;42438;53.174;6.730;2023-07-13T02:02:46;16.30;99.90
56542;DHT22;42438;53.174;6.730;2023-07-13T02:05:17;16.20;1.00
56542;DHT22;42438;53.174;6.730;2023-07-13T02:07:47;16.30;1.00
56542;DHT22;42438;53.174;6.730;2023-07-13T02:10:18;16.30;1.00
56542;DHT22;42438;53.174;6.730;2023-07-13T02:12:49;16.30;1.00
56542;DHT22;42438;53.174;6.730;2023-07-13T02:15:21;16.30;1.00
56542;DHT22;42438;53.174;6.730;2023-07-13T02:17:51;16.30;1.00
56542;DHT22;42438;53.174;6.730;2023-07-13T02:20:22;16.30;1.00
56542;DHT22;42438;53.174;6.730;2023-07-13T02:22:53;16.30;1.00
56542;DHT22;42438;53.174;6.730;2023-07-13T02:25:24;16.30;1.00
56542;DHT22;42438;53.174;6.730;2023-07-13T02:27:55;16.30;1.00
56542;DHT22;42438;53.174;6.730;2023-07-13T02:30:27;16.30;1.00
56542;DHT22;42438;53.174;6.730;2023-07-13T02:33:00;16.30;1.00
56542;DHT22;42438;53.174;6.730;2023-07-13T02:35:31;16.30;1.00
56542;DHT22;42438;53.174;6.730;2023-07-13T02:38:01;16.30;16.60
56542;DHT22;42438;53.174;6.730;2023-07-13T02:40:32;16.30;25.60
56542;DHT22;42438;53.174;6.730;2023-07-13T02:43:06;16.30;60.50
56542;DHT22;42438;53.174;6.730;2023-07-13T02:45:36;16.30;93.30
56542;DHT22;42438;53.174;6.730;2023-07-13T02:48:07;16.20;97.20
56542;DHT22;42438;53.174;6.730;2023-07-13T02:50:38;16.20;99.90
56542;DHT22;42438;53.174;6.730;2023-07-13T02:53:09;16.20;99.90
56542;DHT22;42438;53.174;6.730;2023-07-13T02:55:39;16.20;99.90
56542;DHT22;42438;53.174;6.730;2023-07-13T02:58:11;16.10;99.90
56542;DHT22;42438;53.174;6.730;2023-07-13T03:00:42;16.10;99.90
56542;DHT22;42438;53.174;6.730;2023-07-13T03:03:16;16.00;99.90
56542;DHT22;42438;53.174;6.730;2023-07-13T03:05:47;16.00;99.90
56542;DHT22;42438;53.174;6.730;2023-07-13T03:08:20;15.90;99.90
56542;DHT22;42438;53.174;6.730;2023-07-13T03:11:09;15.90;99.90
56542;DHT22;42438;53.174;6.730;2023-07-13T03:13:42;15.90;99.90
56542;DHT22;42438;53.174;6.730;2023-07-13T03:16:13;15.80;99.90
56542;DHT22;42438;53.174;6.730;2023-07-13T03:18:46;15.70;99.90
56542;DHT22;42438;53.174;6.730;2023-07-13T03:21:17;15.70;99.90
56542;DHT22;42438;53.174;6.730;2023-07-13T03:23:48;15.70;99.90
56542;DHT22;42438;53.174;6.730;2023-07-13T03:26:20;15.70;99.90
56542;DHT22;42438;53.174;6.730;2023-07-13T03:28:51;15.60;99.90
56542;DHT22;42438;53.174;6.730;2023-07-13T03:31:25;15.60;99.90
56542;DHT22;42438;53.174;6.730;2023-07-13T03:33:57;15.70;99.90
56542;DHT22;42438;53.174;6.730;2023-07-13T03:36:29;15.60;99.90
56542;DHT22;42438;53.174;6.730;2023-07-13T03:39:02;15.60;99.90
56542;DHT22;42438;53.174;6.730;2023-07-13T03:41:33;15.60;99.90
56542;DHT22;42438;53.174;6.730;2023-07-13T03:44:04;15.60;99.90
56542;DHT22;42438;53.174;6.730;2023-07-13T03:46:35;15.60;99.90
56542;DHT22;42438;53.174;6.730;2023-07-13T03:49:06;15.60;99.90
56542;DHT22;42438;53.174;6.730;2023-07-13T03:51:36;15.60;99.90
56542;DHT22;42438;53.174;6.730;2023-07-13T03:54:07;15.60;99.90
56542;DHT22;42438;53.174;6.730;2023-07-13T03:56:38;15.70;99.90
56542;DHT22;42438;53.174;6.730;2023-07-13T03:59:08;15.80;99.90
56542;DHT22;42438;53.174;6.730;2023-07-13T04:01:39;15.80;99.90
56542;DHT22;42438;53.174;6.730;2023-07-13T04:04:10;15.80;99.90
56542;DHT22;42438;53.174;6.730;2023-07-13T04:06:41;15.80;99.90
56542;DHT22;42438;53.174;6.730;2023-07-13T04:09:12;15.90;99.90
56542;DHT22;42438;53.174;6.730;2023-07-13T04:11:42;15.90;99.90
56542;DHT22;42438;53.174;6.730;2023-07-13T04:14:13;15.90;99.90
56542;DHT22;42438;53.174;6.730;2023-07-13T04:16:44;15.90;99.90
56542;DHT22;42438;53.174;6.730;2023-07-13T04:19:15;15.90;99.90
56542;DHT22;42438;53.174;6.730;2023-07-13T04:21:46;15.90;99.90
56542;DHT22;42438;53.174;6.730;2023-07-13T04:24:17;16.00;99.90
56542;DHT22;42438;53.174;6.730;2023-07-13T04:26:48;16.00;99.90
56542;DHT22;42438;53.174;6.730;2023-07-13T04:29:19;16.00;99.90
56542;DHT22;42438;53.174;6.730;2023-07-13T04:31:49;16.10;99.90
56542;DHT22;42438;53.174;6.730;2023-07-13T04:34:20;16.00;99.90
56542;DHT22;42438;53.174;6.730;2023-07-13T04:36:51;16.00;99.90
56542;DHT22;42438;53.174;6.730;2023-07-13T04:39:22;16.10;99.90
56542;DHT22;42438;53.174;6.730;2023-07-13T04:41:53;16.10;99.90
56542;DHT22;42438;53.174;6.730;2023-07-13T04:44:26;16.00;99.90
56542;DHT22;42438;53.174;6.730;2023-07-13T04:46:57;16.10;99.90
56542;DHT22;42438;53.174;6.730;2023-07-13T04:49:27;16.10;99.90
56542;DHT22;42438;53.174;6.730;2023-07-13T04:51:58;16.10;99.90
56542;DHT22;42438;53.174;6.730;2023-07-13T04:54:29;16.20;99.90
56542;DHT22;42438;53.174;6.730;2023-07-13T04:56:59;16.30;99.90
56542;DHT22;42438;53.174;6.730;2023-07-13T04:59:30;16.40;99.90
56542;DHT22;42438;53.174;6.730;2023-07-13T05:02:01;16.50;99.90
56542;DHT22;42438;53.174;6.730;2023-07-13T05:04:33;16.50;99.90
56542;DHT22;42438;53.174;6.730;2023-07-13T05:07:05;16.60;99.90
56542;DHT22;42438;53.174;6.730;2023-07-13T05:09:36;16.60;99.90
56542;DHT22;42438;53.174;6.730;2023-07-13T05:12:08;16.70;99.90
56542;DHT22;42438;53.174;6.730;2023-07-13T05:14:39;16.80;99.90
56542;DHT22;42438;53.174;6.730;2023-07-13T05:17:10;17.00;99.90
56542;DHT22;42438;53.174;6.730;2023-07-13T05:19:41;17.00;99.90
56542;DHT22;42438;53.174;6.730;2023-07-13T05:22:11;16.90;99.90
56542;DHT22;42438;53.174;6.730;2023-07-13T05:24:42;16.90;99.90
56542;DHT22;42438;53.174;6.730;2023-07-13T05:27:13;16.90;99.90
56542;DHT22;42438;53.174;6.730;2023-07-13T05:29:44;16.90;99.90
56542;DHT22;42438;53.174;6.730;2023-07-13T05:32:15;17.00;99.90
56542;DHT22;42438;53.174;6.730;2023-07-13T05:34:45;17.00;99.90
56542;DHT22;42438;53.174;6.730;2023-07-13T05:37:16;17.00;99.90
56542;DHT22;42438;53.174;6.730;2023-07-13T05:39:47;17.10;99.90
56542;DHT22;42438;53.174;6.730;2023-07-13T05:42:18;17.10;99.90
56542;DHT22;42438;53.174;6.730;2023-07-13T05:44:49;17.10;99.90
56542;DHT22;42438;53.174;6.730;2023-07-13T05:47:19;17.20;99.90
56542;DHT22;42438;53.174;6.730;2023-07-13T05:49:50;17.40;99.90
56542;DHT22;42438;53.174;6.730;2023-07-13T05:52:21;18.20;99.90
56542;DHT22;42438;53.174;6.730;2023-07-13T05:54:51;19.30;1.00
56542;DHT22;42438;53.174;6.730;2023-07-13T05:57:22;20.30;1.00
56542;DHT22;42438;53.174;6.730;2023-07-13T05:59:53;21.20;1.00
56542;DHT22;42438;53.174;6.730;2023-07-13T06:02:23;21.90;1.00
56542;DHT22;42438;53.174;6.730;2023-07-13T06:04:54;22.40;99.90
56542;DHT22;42438;53.174;6.730;2023-07-13T06:07:25;22.70;1.00
56542;DHT22;42438;53.174;6.730;2023-07-13T06:09:56;23.10;99.90
56542;DHT22;42438;53.174;6.730;2023-07-13T06:12:27;23.30;99.90
56542;DHT22;42438;53.174;6.730;2023-07-13T06:14:58;23.30;99.90
56542;DHT22;42438;53.174;6.730;2023-07-13T06:17:28;23.30;99.90
56542;DHT22;42438;53.174;6.730;2023-07-13T06:19:59;23.30;99.90
56542;DHT22;42438;53.174;6.730;2023-07-13T06:22:30;23.30;99.90
56542;DHT22;42438;53.174;6.730;2023-07-13T06:25:00;23.30;99.90
56542;DHT22;42438;53.174;6.730;2023-07-13T06:27:31;23.20;99.90
56542;DHT22;42438;53.174;6.730;2023-07-13T06:30:02;22.90;99.90
56542;DHT22;42438;53.174;6.730;2023-07-13T06:32:33;22.70;99.90
56542;DHT22;42438;53.174;6.730;2023-07-13T06:35:04;22.20;99.90
56542;DHT22;42438;53.174;6.730;2023-07-13T06:37:35;21.90;99.90
56542;DHT22;42438;53.174;6.730;2023-07-13T06:40:06;21.30;1.00
56542;DHT22;42438;53.174;6.730;2023-07-13T06:42:38;20.80;99.90
56542;DHT22;42438;53.174;6.730;2023-07-13T06:45:09;20.50;1.00
56542;DHT22;42438;53.174;6.730;2023-07-13T06:47:40;20.30;91.10
56542;DHT22;42438;53.174;6.730;2023-07-13T06:50:10;20.10;99.90
56542;DHT22;42438;53.174;6.730;2023-07-13T06:52:41;20.10;99.90
56542;DHT22;42438;53.174;6.730;2023-07-13T06:55:12;20.00;1.00
56542;DHT22;42438;53.174;6.730;2023-07-13T06:57:43;20.00;99.90
56542;DHT22;42438;53.174;6.730;2023-07-13T07:00:14;20.00;99.90
56542;DHT22;42438;53.174;6.730;2023-07-13T07:02:45;20.10;99.90
56542;DHT22;42438;53.174;6.730;2023-07-13T07:05:15;20.10;1.00
56542;DHT22;42438;53.174;6.730;2023-07-13T07:07:46;20.00;1.00
56542;DHT22;42438;53.174;6.730;2023-07-13T07:10:18;20.00;1.00
56542;DHT22;42438;53.174;6.730;2023-07-13T07:12:49;20.10;1.00
56542;DHT22;42438;53.174;6.730;2023-07-13T07:15:20;20.10;99.90
56542;DHT22;42438;53.174;6.730;2023-07-13T07:17:50;20.00;1.00
56542;DHT22;42438;53.174;6.730;2023-07-13T07:20:21;19.90;1.00
56542;DHT22;42438;53.174;6.730;2023-07-13T07:22:52;20.00;1.00
56542;DHT22;42438;53.174;6.730;2023-07-13T07:25:23;20.10;1.00
56542;DHT22;42438;53.174;6.730;2023-07-13T07:27:54;20.20;99.90
56542;DHT22;42438;53.174;6.730;2023-07-13T07:30:24;20.20;79.70
56542;DHT22;42438;53.174;6.730;2023-07-13T07:32:55;20.30;99.90
56542;DHT22;42438;53.174;6.730;2023-07-13T07:35:26;20.50;99.90
56542;DHT22;42438;53.174;6.730;2023-07-13T07:37:56;20.50;36.30
56542;DHT22;42438;53.174;6.730;2023-07-13T07:40:27;20.40;1.00
56542;DHT22;42438;53.174;6.730;2023-07-13T07:42:58;20.20;1.00
56542;DHT22;42438;53.174;6.730;2023-07-13T07:45:28;20.00;84.90
56542;DHT22;42438;53.174;6.730;2023-07-13T07:47:59;19.80;99.90
56542;DHT22;42438;53.174;6.730;2023-07-13T07:50:31;19.70;99.90
56542;DHT22;42438;53.174;6.730;2023-07-13T07:53:02;19.70;99.90
56542;DHT22;42438;53.174;6.730;2023-07-13T07:55:34;19.80;99.90
56542;DHT22;42438;53.174;6.730;2023-07-13T07:58:07;19.70;99.90
56542;DHT22;42438;53.174;6.730;2023-07-13T08:00:38;19.70;23.50
56542;DHT22;42438;53.174;6.730;2023-07-13T08:03:10;20.00;99.90
56542;DHT22;42438;53.174;6.730;2023-07-13T08:05:41;20.30;1.00
56542;DHT22;42438;53.174;6.730;2023-07-13T08:08:12;20.40;1.00
56542;DHT22;42438;53.174;6.730;2023-07-13T08:10:42;20.30;1.00
56542;DHT22;42438;53.174;6.730;2023-07-13T08:13:13;20.00;70.50
56542;DHT22;42438;53.174;6.730;2023-07-13T08:15:44;19.80;99.90
56542;DHT22;42438;53.174;6.730;2023-07-13T08:18:16;19.60;87.40
56542;DHT22;42438;53.174;6.730;2023-07-13T08:20:47;19.60;1.00
56542;DHT22;42438;53.174;6.730;2023-07-13T08:23:17;19.70;99.90
56542;DHT22;42438;53.174;6.730;2023-07-13T08:25:52;19.80;99.90
56542;DHT22;42438;53.174;6.730;2023-07-13T08:28:24;19.80;1.00
56542;DHT22;42438;53.174;6.730;2023-07-13T08:30:54;19.90;1.00
56542;DHT22;42438;53.174;6.730;2023-07-13T08:33:25;20.00;99.90
56542;DHT22;42438;53.174;6.730;2023-07-13T08:35:56;20.00;1.00
56542;DHT22;42438;53.174;6.730;2023-07-13T08:38:28;20.00;99.90
56542;DHT22;42438;53.174;6.730;2023-07-13T08:40:59;20.20;99.90
56542;DHT22;42438;53.174;6.730;2023-07-13T08:43:34;20.30;99.90
56542;DHT22;42438;53.174;6.730;2023-07-13T08:46:51;20.40;99.90
56542;DHT22;42438;53.174;6.730;2023-07-13T08:49:22;20.50;99.90
56542;DHT22;42438;53.174;6.730;2023-07-13T08:52:03;20.60;1.00
56542;DHT22;42438;53.174;6.730;2023-07-13T08:54:40;20.70;11.10
56542;DHT22;42438;53.174;6.730;2023-07-13T08:57:18;20.90;1.00
56542;DHT22;42438;53.174;6.730;2023-07-13T08:59:51;20.90;99.90
56542;DHT22;42438;53.174;6.730;2023-07-13T09:02:45;20.80;99.90
56542;DHT22;42438;53.174;6.730;2023-07-13T09:05:56;20.80;99.90
56542;DHT22;42438;53.174;6.730;2023-07-13T09:14:32;21.00;99.90
56542;DHT22;42438;53.174;6.730;2023-07-13T09:17:09;21.00;99.90
56542;DHT22;42438;53.174;6.730;2023-07-13T09:19:41;21.00;99.90
56542;DHT22;42438;53.174;6.730;2023-07-13T09:22:16;20.90;99.90
56542;DHT22;42438;53.174;6.730;2023-07-13T09:24:55;20.60;99.90
56542;DHT22;42438;53.174;6.730;2023-07-13T09:27:36;20.40;99.90
56542;DHT22;42438;53.174;6.730;2023-07-13T09:30:33;20.30;99.90
56542;DHT22;42438;53.174;6.730;2023-07-13T09:33:00;20.50;99.90
56542;DHT22;42438;53.174;6.730;2023-07-13T09:35:31;20.90;99.90
56542;DHT22;42438;53.174;6.730;2023-07-13T09:38:18;21.20;56.70
56542;DHT22;42438;53.174;6.730;2023-07-13T09:40:59;21.60;1.00
56542;DHT22;42438;53.174;6.730;2023-07-13T09:43:31;21.80;1.00
56542;DHT22;42438;53.174;6.730;2023-07-13T09:46:02;21.90;1.00
56542;DHT22;42438;53.174;6.730;2023-07-13T09:48:36;21.80;1.00
56542;DHT22;42438;53.174;6.730;2023-07-13T09:51:13;21.60;1.00
56542;DHT22;42438;53.174;6.730;2023-07-13T09:53:44;21.30;1.00
56542;DHT22;42438;53.174;6.730;2023-07-13T09:56:24;21.10;6.60
56542;DHT22;42438;53.174;6.730;2023-07-13T09:58:57;20.80;1.00
56542;DHT22;42438;53.174;6.730;2023-07-13T10:01:36;20.50;28.60
56542;DHT22;42438;53.174;6.730;2023-07-13T10:04:13;20.30;97.80
56542;DHT22;42438;53.174;6.730;2023-07-13T10:06:47;20.20;99.90
56542;DHT22;42438;53.174;6.730;2023-07-13T10:09:17;20.10;99.90
56542;DHT22;42438;53.174;6.730;2023-07-13T10:11:50;20.00;99.90
56542;DHT22;42438;53.174;6.730;2023-07-13T10:14:22;20.10;99.90
56542;DHT22;42438;53.174;6.730;2023-07-13T10:17:00;20.30;99.90
56542;DHT22;42438;53.174;6.730;2023-07-13T10:19:34;20.40;99.90
56542;DHT22;42438;53.174;6.730;2023-07-13T10:22:26;20.70;99.90
56542;DHT22;42438;53.174;6.730;2023-07-13T10:24:58;20.80;99.90
56542;DHT22;42438;53.174;6.730;2023-07-13T10:27:33;20.80;99.90
56542;DHT22;42438;53.174;6.730;2023-07-13T10:30:29;20.90;99.90
56542;DHT22;42438;53.174;6.730;2023-07-13T10:33:03;21.00;93.70
56542;DHT22;42438;53.174;6.730;2023-07-13T10:35:36;21.30;99.90
56542;DHT22;42438;53.174;6.730;2023-07-13T10:38:13;21.70;70.00
56542;DHT22;42438;53.174;6.730;2023-07-13T10:40:58;21.90;8.70
56542;DHT22;42438;53.174;6.730;2023-07-13T10:43:44;21.90;1.00
56542;DHT22;42438;53.174;6.730;2023-07-13T10:46:17;21.80;1.00
56542;DHT22;42438;53.174;6.730;2023-07-13T10:48:52;21.50;1.00
56542;DHT22;42438;53.174;6.730;2023-07-13T10:51:24;21.60;21.50
56542;DHT22;42438;53.174;6.730;2023-07-13T10:54:18;21.90;26.10
56542;DHT22;42438;53.174;6.730;2023-07-13T11:02:35;22.90;1.00
56542;DHT22;42438;53.174;6.730;2023-07-13T11:05:27;22.90;1.00
56542;DHT22;42438;53.174;6.730;2023-07-13T11:08:21;22.70;1.00
56542;DHT22;42438;53.174;6.730;2023-07-13T11:11:03;22.50;1.00
56542;DHT22;42438;53.174;6.730;2023-07-13T11:22:01;22.50;1.00
56542;DHT22;42438;53.174;6.730;2023-07-13T11:24:48;22.80;1.00
56542;DHT22;42438;53.174;6.730;2023-07-13T11:27:40;23.00;1.00
56542;DHT22;42438;53.174;6.730;2023-07-13T11:36:28;22.70;1.00
56542;DHT22;42438;53.174;6.730;2023-07-13T11:41:26;22.40;1.00
56542;DHT22;42438;53.174;6.730;2023-07-13T11:44:16;22.70;1.00
56542;DHT22;42438;53.174;6.730;2023-07-13T11:46:54;23.10;1.00
56542;DHT22;42438;53.174;6.730;2023-07-13T11:49:26;23.30;1.00
56542;DHT22;42438;53.174;6.730;2023-07-13T11:51:58;22.90;1.00
56542;DHT22;42438;53.174;6.730;2023-07-13T11:54:34;22.60;1.00
56542;DHT22;42438;53.174;6.730;2023-07-13T11:57:28;22.70;1.00
56542;DHT22;42438;53.174;6.730;2023-07-13T12:00:09;22.80;1.00
56542;DHT22;42438;53.174;6.730;2023-07-13T12:02:44;22.30;1.00
56542;DHT22;42438;53.174;6.730;2023-07-13T12:05:17;21.90;1.00
56542;DHT22;42438;53.174;6.730;2023-07-13T12:07:49;21.70;1.00
56542;DHT22;42438;53.174;6.730;2023-07-13T12:10:23;21.30;1.00
56542;DHT22;42438;53.174;6.730;2023-07-13T12:12:59;21.40;1.00
56542;DHT22;42438;53.174;6.730;2023-07-13T12:15:35;21.70;1.00
56542;DHT22;42438;53.174;6.730;2023-07-13T12:18:21;21.70;1.00
56542;DHT22;42438;53.174;6.730;2023-07-13T12:20:53;22.10;1.00
56542;DHT22;42438;53.174;6.730;2023-07-13T12:23:32;22.50;1.00
56542;DHT22;42438;53.174;6.730;2023-07-13T12:26:05;22.50;1.00
56542;DHT22;42438;53.174;6.730;2023-07-13T12:28:47;22.40;1.00
56542;DHT22;42438;53.174;6.730;2023-07-13T12:34:15;22.30;1.00
56542;DHT22;42438;53.174;6.730;2023-07-13T12:36:49;22.30;1.00
56542;DHT22;42438;53.174;6.730;2023-07-13T12:44:45;22.20;1.00
56542;DHT22;42438;53.174;6.730;2023-07-13T12:47:16;22.20;1.00
56542;DHT22;42438;53.174;6.730;2023-07-13T12:49:55;22.30;1.00
56542;DHT22;42438;53.174;6.730;2023-07-13T12:52:34;22.40;1.00
56542;DHT22;42438;53.174;6.730;2023-07-13T12:55:10;22.70;1.00
56542;DHT22;42438;53.174;6.730;2023-07-13T13:00:24;22.80;1.00
56542;DHT22;42438;53.174;6.730;2023-07-13T13:02:56;22.90;1.00
56542;DHT22;42438;53.174;6.730;2023-07-13T13:05:29;22.30;1.00
56542;DHT22;42438;53.174;6.730;2023-07-13T13:08:00;22.20;1.00
56542;DHT22;42438;53.174;6.730;2023-07-13T13:10:31;21.80;1.00
56542;DHT22;42438;53.174;6.730;2023-07-13T13:13:01;21.60;1.00
56542;DHT22;42438;53.174;6.730;2023-07-13T13:15:33;21.40;1.00
56542;DHT22;42438;53.174;6.730;2023-07-13T13:18:15;21.10;1.00
56542;DHT22;42438;53.174;6.730;2023-07-13T13:20:48;21.20;1.00
56542;DHT22;42438;53.174;6.730;2023-07-13T13:23:20;21.20;1.00
56542;DHT22;42438;53.174;6.730;2023-07-13T13:25:51;21.30;1.00
56542;DHT22;42438;53.174;6.730;2023-07-13T13:28:22;21.60;1.00
56542;DHT22;42438;53.174;6.730;2023-07-13T13:30:53;22.00;1.00
56542;DHT22;42438;53.174;6.730;2023-07-13T13:33:24;22.20;1.00
56542;DHT22;42438;53.174;6.730;2023-07-13T13:35:54;22.30;1.00
56542;DHT22;42438;53.174;6.730;2023-07-13T13:38:27;22.40;1.00
56542;DHT22;42438;53.174;6.730;2023-07-13T13:40:58;22.00;1.00
56542;DHT22;42438;53.174;6.730;2023-07-13T13:43:28;21.70;1.00
56542;DHT22;42438;53.174;6.730;2023-07-13T13:45:59;21.70;1.00
56542;DHT22;42438;53.174;6.730;2023-07-13T13:48:34;21.60;1.00
56542;DHT22;42438;53.174;6.730;2023-07-13T13:51:16;21.90;1.00
56542;DHT22;42438;53.174;6.730;2023-07-13T13:53:48;22.00;1.00
56542;DHT22;42438;53.174;6.730;2023-07-13T13:56:19;22.10;1.00
56542;DHT22;42438;53.174;6.730;2023-07-13T13:58:50;22.00;1.00
56542;DHT22;42438;53.174;6.730;2023-07-13T14:01:22;22.00;1.00
56542;DHT22;42438;53.174;6.730;2023-07-13T14:03:53;22.10;1.00
56542;DHT22;42438;53.174;6.730;2023-07-13T14:06:25;22.20;1.00
56542;DHT22;42438;53.174;6.730;2023-07-13T14:08:55;21.80;1.00
56542;DHT22;42438;53.174;6.730;2023-07-13T14:11:26;21.40;1.00
56542;DHT22;42438;53.174;6.730;2023-07-13T14:13:59;21.00;1.00
56542;DHT22;42438;53.174;6.730;2023-07-13T14:16:31;20.80;1.00
56542;DHT22;42438;53.174;6.730;2023-07-13T14:19:04;20.80;1.00
56542;DHT22;42438;53.174;6.730;2023-07-13T14:21:34;21.40;1.00
56542;DHT22;42438;53.174;6.730;2023-07-13T14:24:06;21.90;1.00
56542;DHT22;42438;53.174;6.730;2023-07-13T14:26:39;22.10;1.00
56542;DHT22;42438;53.174;6.730;2023-07-13T14:29:15;22.40;1.00
56542;DHT22;42438;53.174;6.730;2023-07-13T14:31:47;22.60;1.00
56542;DHT22;42438;53.174;6.730;2023-07-13T14:34:18;22.70;1.00
56542;DHT22;42438;53.174;6.730;2023-07-13T14:36:49;22.40;1.00
56542;DHT22;42438;53.174;6.730;2023-07-13T14:39:24;22.40;1.00
56542;DHT22;42438;53.174;6.730;2023-07-13T14:41:56;22.60;1.00
56542;DHT22;42438;53.174;6.730;2023-07-13T14:44:29;22.60;1.00
56542;DHT22;42438;53.174;6.730;2023-07-13T14:49:42;22.30;1.00
56542;DHT22;42438;53.174;6.730;2023-07-13T14:52:19;22.10;1.00
56542;DHT22;42438;53.174;6.730;2023-07-13T14:54:51;22.10;1.00
56542;DHT22;42438;53.174;6.730;2023-07-13T14:57:22;22.30;1.00
56542;DHT22;42438;53.174;6.730;2023-07-13T14:59:53;22.20;1.00
56542;DHT22;42438;53.174;6.730;2023-07-13T15:02:29;22.00;1.00
56542;DHT22;42438;53.174;6.730;2023-07-13T15:05:01;22.40;1.00
56542;DHT22;42438;53.174;6.730;2023-07-13T15:07:32;22.40;1.00
56542;DHT22;42438;53.174;6.730;2023-07-13T15:10:21;22.40;1.00
56542;DHT22;42438;53.174;6.730;2023-07-13T15:12:53;22.30;1.00
56542;DHT22;42438;53.174;6.730;2023-07-13T15:15:23;22.20;1.00
56542;DHT22;42438;53.174;6.730;2023-07-13T15:17:54;22.10;1.00
56542;DHT22;42438;53.174;6.730;2023-07-13T15:20:31;21.90;1.00
56542;DHT22;42438;53.174;6.730;2023-07-13T15:23:03;22.00;1.00
56542;DHT22;42438;53.174;6.730;2023-07-13T15:25:33;22.10;1.00
56542;DHT22;42438;53.174;6.730;2023-07-13T15:28:04;22.10;1.00
56542;DHT22;42438;53.174;6.730;2023-07-13T15:33:42;22.10;1.00
56542;DHT22;42438;53.174;6.730;2023-07-13T15:36:13;21.80;1.00
56542;DHT22;42438;53.174;6.730;2023-07-13T15:38:44;21.80;1.00
56542;DHT22;42438;53.174;6.730;2023-07-13T15:41:24;22.00;1.00
56542;DHT22;42438;53.174;6.730;2023-07-13T15:43:57;22.10;1.00
56542;DHT22;42438;53.174;6.730;2023-07-13T15:46:30;21.90;1.00
56542;DHT22;42438;53.174;6.730;2023-07-13T15:49:01;21.50;1.00
56542;DHT22;42438;53.174;6.730;2023-07-13T15:51:34;21.40;1.00
56542;DHT22;42438;53.174;6.730;2023-07-13T15:54:05;21.40;1.00
56542;DHT22;42438;53.174;6.730;2023-07-13T15:56:37;21.70;1.00
56542;DHT22;42438;53.174;6.730;2023-07-13T15:59:11;21.70;1.00
56542;DHT22;42438;53.174;6.730;2023-07-13T16:01:45;21.70;1.00
56542;DHT22;42438;53.174;6.730;2023-07-13T16:04:17;21.70;1.00
56542;DHT22;42438;53.174;6.730;2023-07-13T16:06:49;21.90;1.00
56542;DHT22;42438;53.174;6.730;2023-07-13T16:09:22;21.90;1.00
56542;DHT22;42438;53.174;6.730;2023-07-13T16:11:53;21.50;1.00
56542;DHT22;42438;53.174;6.730;2023-07-13T16:14:27;21.20;1.00
56542;DHT22;42438;53.174;6.730;2023-07-13T16:16:58;20.90;1.00
56542;DHT22;42438;53.174;6.730;2023-07-13T16:19:29;21.00;1.00
56542;DHT22;42438;53.174;6.730;2023-07-13T16:22:00;21.30;1.00
56542;DHT22;42438;53.174;6.730;2023-07-13T16:24:32;21.50;1.00
56542;DHT22;42438;53.174;6.730;2023-07-13T16:27:03;21.30;1.00
56542;DHT22;42438;53.174;6.730;2023-07-13T16:29:34;21.10;1.00
56542;DHT22;42438;53.174;6.730;2023-07-13T16:32:09;21.10;1.00
56542;DHT22;42438;53.174;6.730;2023-07-13T16:34:42;21.40;1.00
56542;DHT22;42438;53.174;6.730;2023-07-13T16:37:18;21.70;1.00
56542;DHT22;42438;53.174;6.730;2023-07-13T16:39:55;21.80;1.00
56542;DHT22;42438;53.174;6.730;2023-07-13T16:42:28;21.70;1.00
56542;DHT22;42438;53.174;6.730;2023-07-13T16:44:59;21.70;1.00
56542;DHT22;42438;53.174;6.730;2023-07-13T16:47:29;21.80;1.00
56542;DHT22;42438;53.174;6.730;2023-07-13T16:50:00;21.90;1.00
56542;DHT22;42438;53.174;6.730;2023-07-13T16:52:34;22.00;1.00
56542;DHT22;42438;53.174;6.730;2023-07-13T16:55:05;21.80;1.00
56542;DHT22;42438;53.174;6.730;2023-07-13T16:57:36;21.70;1.00
56542;DHT22;42438;53.174;6.730;2023-07-13T17:00:23;21.40;1.00
56542;DHT22;42438;53.174;6.730;2023-07-13T17:03:02;21.40;1.00